createdAt,value
2017-04-11T04:42:06.926Z,14.31
2017-04-11T04:43:25.717Z,6.81
2017-04-11T07:01:39.959Z,7.43
2017-04-11T07:04:21.386Z,10.21
2017-04-11T07:05:26.271Z,12.11
2017-04-11T07:07:51.628Z,11.74
2017-04-11T07:09:05.281Z,7.94
2017-04-11T07:10:08.946Z,11.64
2017-04-11T07:11:07.996Z,12.44
2017-04-11T07:12:05.987Z,9.26
2017-04-11T07:13:03.968Z,13.00
2017-04-11T07:14:02.797Z,11.03
2017-04-11T07:15:01.274Z,8.83
2017-04-11T07:16:05.015Z,10.36
2017-04-11T07:17:03.090Z,7.37
2017-04-11T07:18:01.082Z,11.99
2017-04-11T07:18:59.461Z,11.16
2017-04-11T07:19:57.350Z,8.06
2017-04-11T07:20:55.266Z,9.30
2017-04-11T07:21:53.125Z,9.39
2017-04-11T07:22:51.242Z,13.97
2017-04-11T07:25:12.250Z,9.71
2017-04-11T07:26:10.997Z,9.67
2017-04-11T07:27:09.293Z,8.83
2017-04-11T07:28:07.397Z,13.80
2017-04-11T07:29:05.447Z,9.79
2017-04-11T07:30:04.848Z,10.07
2017-04-11T07:31:02.983Z,13.46
2017-04-11T07:32:01.897Z,11.33
2017-04-11T07:33:00.215Z,10.06
2017-04-11T07:33:58.298Z,12.40
2017-04-11T07:34:56.691Z,13.39
2017-04-11T07:35:54.587Z,13.66
2017-04-11T07:36:52.722Z,10.31
2017-04-11T07:37:50.645Z,7.19
2017-04-11T07:38:51.942Z,10.11
2017-04-11T07:39:52.547Z,12.26
2017-04-11T08:29:34.813Z,10.26
2017-04-11T08:30:34.010Z,10.30
2017-04-11T08:31:34.737Z,8.64
2017-04-11T08:32:33.869Z,11.11
2017-04-11T08:33:33.470Z,9.19
2017-04-11T08:34:32.862Z,12.67
2017-04-11T08:35:31.397Z,16.40
2017-04-11T08:36:29.839Z,12.47
2017-04-11T08:37:29.610Z,11.40
2017-04-11T08:38:28.118Z,9.64
2017-04-11T08:39:29.705Z,10.04
2017-04-11T08:40:29.724Z,8.29
2017-04-11T08:41:28.226Z,8.36
2017-04-11T08:42:26.558Z,6.84
2017-04-11T08:43:24.980Z,9.77
2017-04-11T08:44:23.601Z,19.30
2017-04-11T08:45:22.464Z,6.13
2017-04-11T08:46:20.836Z,8.29
2017-04-11T08:47:19.884Z,7.07
2017-04-11T08:48:18.346Z,7.47
2017-04-11T08:49:16.961Z,8.96
2017-04-11T08:50:16.240Z,6.97
2017-04-11T08:51:14.675Z,7.94
2017-04-11T08:52:12.949Z,5.87
2017-04-11T08:53:12.243Z,8.54
2017-04-11T08:54:11.659Z,5.09
2017-04-11T08:55:10.762Z,5.77
2017-04-11T10:05:32.826Z,6.84
2017-04-11T10:06:31.647Z,7.17
2017-04-11T10:07:30.547Z,6.23
2017-04-11T10:08:28.737Z,6.53
2017-04-11T10:09:27.357Z,5.21
2017-04-11T10:10:25.953Z,3.33
2017-04-11T10:11:24.143Z,7.59
2017-04-11T10:12:22.677Z,4.89
2017-04-11T10:13:20.972Z,6.59
2017-04-11T10:14:19.432Z,2.76
2017-04-11T10:15:17.502Z,4.17
2017-04-11T10:16:16.593Z,7.06
2017-04-11T10:17:15.195Z,8.94
2017-04-11T10:18:13.752Z,6.61
2017-04-11T10:19:11.952Z,3.01
2017-04-11T10:20:10.779Z,4.00
2017-04-11T10:21:11.237Z,4.49
2017-04-11T10:22:09.981Z,2.99
2017-04-11T10:23:08.327Z,9.06
2017-04-11T10:24:07.190Z,2.89
2017-04-11T10:25:06.378Z,5.00
2017-04-11T10:26:06.095Z,4.04
2017-04-11T10:28:09.756Z,8.07
2017-04-11T10:29:08.248Z,6.46
2017-04-11T10:30:13.686Z,3.61
2017-04-11T10:31:12.876Z,4.80
2017-04-11T10:32:11.401Z,3.01
2017-04-11T10:33:09.794Z,4.44
2017-04-11T10:34:08.175Z,4.06
2017-04-11T10:35:06.481Z,4.07
2017-04-11T10:36:04.587Z,3.26
2017-04-11T10:37:02.888Z,5.06
2017-04-11T10:38:01.306Z,3.27
2017-04-11T10:38:59.485Z,2.73
2017-04-11T10:39:57.844Z,4.84
2017-04-11T10:40:56.469Z,5.07
2017-04-11T10:41:56.002Z,2.39
2017-04-11T10:42:56.145Z,9.47
2017-04-11T10:43:58.819Z,6.26
2017-04-11T10:44:57.290Z,7.11
2017-04-11T10:45:55.495Z,6.20
2017-04-11T10:46:54.405Z,3.99
2017-04-11T10:47:54.187Z,5.44
2017-04-11T10:48:53.763Z,3.54
2017-04-11T10:49:51.830Z,4.74
2017-04-11T10:50:49.842Z,6.20
2017-04-11T10:51:48.993Z,2.83
2017-04-11T10:52:47.489Z,8.84
2017-04-11T10:53:45.681Z,3.10
2017-04-11T10:54:44.127Z,3.17
2017-04-11T10:55:42.770Z,2.49
2017-04-11T10:56:43.302Z,5.17
2017-04-11T10:57:41.985Z,4.73
2017-04-11T10:58:40.709Z,3.50
2017-04-11T10:59:40.075Z,4.21
2017-04-11T11:00:41.019Z,3.16
2017-04-11T11:01:45.871Z,5.37
2017-04-11T11:02:44.840Z,5.41
2017-04-11T11:03:44.156Z,6.94
2017-04-11T11:04:43.552Z,4.53
2017-04-11T11:05:42.104Z,3.71
2017-04-11T11:06:40.776Z,7.66
2017-04-11T11:07:50.110Z,3.51
2017-04-11T12:01:55.038Z,6.07
2017-04-11T12:02:54.034Z,4.10
2017-04-11T12:03:53.570Z,2.81
2017-04-11T12:04:52.461Z,7.07
2017-04-11T12:05:51.761Z,4.46
2017-04-11T12:06:51.082Z,3.80
2017-04-11T12:07:50.542Z,3.96
2017-04-11T12:08:50.750Z,3.21
2017-04-11T12:09:50.244Z,5.21
2017-04-11T12:10:48.571Z,7.21
2017-04-11T12:11:48.521Z,5.44
2017-04-11T12:12:46.710Z,5.76
2017-04-11T12:13:45.877Z,6.93
2017-04-11T12:14:45.262Z,6.26
2017-04-11T12:15:43.522Z,3.94
2017-04-11T12:16:41.742Z,5.64
2017-04-11T12:20:29.046Z,5.33
2017-04-11T12:21:29.647Z,4.91
2017-04-11T12:22:28.997Z,5.30
2017-04-11T12:23:28.349Z,7.39
2017-04-11T12:24:26.724Z,6.40
2017-04-11T12:25:26.921Z,4.04
2017-04-11T12:26:25.050Z,6.03
2017-04-11T12:27:23.049Z,4.34
2017-04-11T12:28:22.353Z,3.97
2017-04-11T12:29:21.229Z,4.36
2017-04-11T12:30:20.421Z,6.60
2017-04-11T12:31:18.672Z,6.16
2017-04-11T12:32:17.010Z,3.91
2017-04-11T12:33:15.006Z,5.21
2017-04-11T12:34:14.237Z,5.30
2017-04-11T14:34:16.151Z,5.39
2017-04-11T14:35:14.966Z,5.66
2017-04-11T14:36:13.464Z,5.86
2017-04-11T14:37:11.670Z,7.33
2017-04-11T14:38:09.863Z,7.59
2017-04-11T14:39:07.805Z,6.36
2017-04-11T14:40:05.855Z,6.11
2017-04-11T14:41:03.772Z,6.57
2017-04-11T14:42:02.316Z,4.44
2017-04-11T14:43:01.133Z,4.80
2017-04-11T14:43:59.634Z,5.71
2017-04-11T14:44:57.565Z,6.81
2017-04-11T14:45:56.121Z,5.39
2017-04-11T14:46:54.338Z,5.36
2017-04-11T14:47:56.329Z,10.90
2017-04-11T15:37:29.141Z,6.84
2017-04-11T15:38:27.353Z,9.57
2017-04-11T15:39:25.554Z,6.99
2017-04-11T15:40:23.652Z,6.00
2017-04-11T15:41:21.739Z,7.97
2017-04-11T15:42:19.787Z,7.21
2017-04-11T15:43:18.326Z,7.39
2017-04-11T15:44:17.066Z,7.21
2017-04-11T15:45:15.358Z,7.24
2017-04-11T15:46:13.346Z,7.84
2017-04-11T15:47:11.364Z,7.69
2017-04-11T15:48:09.393Z,7.39
2017-04-11T15:49:07.647Z,6.50
2017-04-11T15:50:06.059Z,6.53
2017-04-11T16:16:26.322Z,6.57
2017-04-11T16:17:44.407Z,5.89
2017-04-11T16:18:43.514Z,7.24
